createdAt,value
2022-08-05T00:11:30.195Z,22.744
2022-08-05T00:26:36.738Z,22.765
2022-08-05T00:41:46.806Z,22.714
2022-08-05T00:56:54.264Z,22.654
2022-08-05T01:11:56.117Z,23.009
2022-08-05T01:26:57.942Z,22.921
2022-08-05T01:41:59.939Z,21.973
2022-08-05T01:58:11.073Z,22.096
2022-08-05T02:13:16.906Z,22.749
2022-08-05T02:28:29.316Z,22.647
2022-08-05T02:43:34.567Z,23.258
2022-08-05T02:59:04.810Z,23.264
2022-08-05T03:14:07.886Z,22.456
2022-08-05T03:29:12.254Z,25.929
2022-08-05T03:44:19.970Z,24.198
2022-08-05T03:59:22.090Z,23.689
2022-08-05T04:14:30.054Z,23.773
2022-08-05T04:29:32.490Z,24.566
2022-08-05T04:44:34.633Z,25.834
2022-08-05T04:59:38.355Z,28.227
2022-08-05T05:14:49.435Z,25.986
2022-08-05T05:30:04.669Z,23.747
2022-08-05T05:45:07.348Z,25.798
2022-08-05T06:00:10.257Z,27.812
2022-08-05T06:15:23.615Z,29.333
2022-08-05T06:30:27.343Z,24.393
2022-08-05T06:45:44.527Z,25.026
2022-08-05T07:01:05.416Z,25.387
2022-08-05T07:16:07.343Z,25.554
2022-08-05T07:31:13.938Z,30.12
2022-08-05T07:46:18.914Z,27.192
2022-08-05T08:01:27.496Z,28.11
2022-08-05T08:16:34.309Z,29.068
2022-08-05T08:31:44.668Z,27.623
2022-08-05T08:46:46.484Z,29.311
2022-08-05T09:01:57.025Z,33.962
2022-08-05T09:16:59.496Z,28.729
2022-08-05T09:32:42.252Z,32.639
2022-08-05T09:47:56.255Z,30.075
2022-08-05T10:02:59.107Z,31.974
2022-08-05T10:18:01.113Z,29.145
2022-08-05T10:33:03.689Z,29.479
2022-08-05T10:48:30.670Z,28.542
2022-08-05T11:03:36.288Z,28.755
2022-08-05T11:18:38.656Z,29.63
2022-08-05T11:33:48.898Z,29.268
2022-08-05T11:48:50.815Z,31.23
2022-08-05T12:03:55.556Z,31.292
2022-08-05T12:18:58.071Z,34.982
2022-08-05T12:33:59.898Z,33.95
2022-08-05T12:49:13.078Z,34.729
2022-08-05T13:04:20.892Z,30.962
2022-08-05T13:19:23.147Z,30.4
2022-08-05T13:34:26.256Z,33.61
2022-08-05T13:49:28.308Z,31.505
2022-08-05T14:04:37.139Z,30.766
2022-08-05T14:19:54.233Z,32.286
2022-08-05T14:34:59.589Z,30.825
2022-08-05T14:50:04.858Z,31.215
2022-08-05T15:05:14.796Z,31.008
2022-08-05T15:20:19.255Z,30.387
2022-08-05T15:35:21.961Z,30.833
2022-08-05T15:50:25.178Z,29.933
2022-08-05T16:05:28.153Z,29.728
2022-08-05T16:20:30.513Z,29.307
2022-08-05T16:35:41.985Z,29.938
2022-08-05T16:50:44.777Z,30.785
2022-08-05T17:05:50.213Z,31.644
2022-08-05T17:20:55.440Z,32.535
2022-08-05T17:36:07.300Z,30.248
2022-08-05T17:51:12.586Z,30.622
2022-08-05T18:06:15.855Z,28.351
2022-08-05T18:21:20.054Z,27.148
2022-08-05T18:36:27.812Z,27.131
2022-08-05T18:52:04.747Z,27.33
2022-08-05T19:07:09.527Z,26.059
2022-08-05T19:22:11.475Z,24.427
2022-08-05T19:37:19.318Z,24.87
2022-08-05T19:52:31.205Z,24.671
2022-08-05T20:07:47.277Z,24.369
2022-08-05T20:22:51.045Z,24.113
2022-08-05T20:38:07.800Z,24.306
2022-08-05T20:53:16.092Z,23.645
2022-08-05T21:08:42.464Z,23.506
2022-08-05T21:23:45.990Z,23.452
2022-08-05T21:38:48.665Z,23.411
2022-08-05T21:53:56.863Z,23.562
2022-08-05T22:09:14.850Z,23.753
2022-08-05T22:24:40.730Z,23.823
2022-08-05T22:39:55.068Z,23.958
2022-08-05T22:54:57.018Z,23.993
2022-08-05T23:10:02.134Z,23.96
2022-08-05T23:25:04.631Z,23.8
2022-08-05T23:40:10.749Z,23.812
2022-08-05T23:55:13.521Z,24.196
